This is the latest recevied weather packets stored in our database for station/object AA4OM-2. If no packets are shown the sender has not sent any weather packets the latest 10 day(s).
| Time | Temp. | Humidity | Pressure | Rain* | Wind** | Luminosity | Snow |
|---|---|---|---|---|---|---|---|
| 1777227751 | 27.22° C | 41% | 1013.9 hPa | 0 mm | - | 954 W/m² | - |
| 1777227448 | 26.67° C | 45% | 1014 hPa | 0 mm | - | 893 W/m² | - |
| 1777227144 | 26.67° C | 45% | 1014 hPa | 0 mm | - | 867 W/m² | - |
| 1777226841 | 27.22° C | 43% | 1014 hPa | 0 mm | - | 871 W/m² | - |
| 1777226539 | 27.78° C | 46% | 1014.2 hPa | 0 mm | - | 957 W/m² | - |
| 1777226235 | 27.22° C | 46% | 1014.2 hPa | 0 mm | - | 934 W/m² | - |
| 1777225932 | 27.22° C | 44% | 1014.2 hPa | 0 mm | - | 911 W/m² | - |
| 1777225627 | 27.22° C | 46% | 1014.2 hPa | 0 mm | - | 911 W/m² | - |
| 1777225325 | 26.67° C | 52% | 1014.2 hPa | 0 mm | - | 1007 W/m² | - |
| 1777225021 | 26.67° C | 50% | 1014.5 hPa | 0 mm | - | 1062 W/m² | - |
| 1777224719 | 26.67° C | 43% | 1014.5 hPa | 0 mm | - | 1032 W/m² | - |
| 1777224414 | 26.11° C | 51% | 1014.5 hPa | 0 mm | - | 955 W/m² | - |
| 1777224110 | 26.67° C | 43% | 1014.5 hPa | 0 mm | - | 974 W/m² | - |
| 1777223807 | 26.11° C | 45% | 1014.5 hPa | 0 mm | - | 1022 W/m² | - |
| 1777223502 | 26.67° C | 45% | 1014.3 hPa | 0 mm | - | 1037 W/m² | - |
| 1777223200 | 26.67° C | 48% | 1014.5 hPa | 0 mm | - | 1012 W/m² | - |
| 1777222898 | 26.67° C | 46% | 1014.3 hPa | 0 mm | - | 961 W/m² | - |
| 1777222595 | 26.67° C | 47% | 1014.7 hPa | 0 mm | - | 1035 W/m² | - |
| 1777222292 | 26.67° C | 46% | 1014.4 hPa | 0 mm | - | 1012 W/m² | - |
| 1777221991 | 25.56° C | 51% | 1014.4 hPa | 0 mm | - | 1027 W/m² | - |
| 1777221691 | 26.11° C | 48% | 1014.5 hPa | 0 mm | - | 900 W/m² | - |
| 1777221387 | 26.11° C | 49% | 1014.4 hPa | 0 mm | - | 966 W/m² | - |
| 1777221086 | 25.56° C | 52% | 1014.7 hPa | 0 mm | - | 963 W/m² | - |
| 1777220780 | 25.56° C | 53% | 1014.5 hPa | 0 mm | - | 923 W/m² | - |
| 1777220476 | 25.56° C | 50% | 1014.5 hPa | 0 mm | - | 849 W/m² | - |
* Rain latest hour (hover to see other rain measurements)
** Current wind speed in m/s (hover to see current wind gust speed)